sensor_id;sensor_type;location;lat;lon;timestamp;P1;durP1;ratioP1;P2;durP2;ratioP2
25984;SDS011;66753;53.848;10.658;2023-01-26T00:03:02;18.90;;;6.23;;
25984;SDS011;66753;53.848;10.658;2023-01-26T00:08:02;23.80;;;7.68;;
25984;SDS011;66753;53.848;10.658;2023-01-26T00:13:04;22.98;;;6.95;;
25984;SDS011;66753;53.848;10.658;2023-01-26T00:18:05;29.15;;;8.18;;
25984;SDS011;66753;53.848;10.658;2023-01-26T00:23:05;23.40;;;6.57;;
25984;SDS011;66753;53.848;10.658;2023-01-26T00:28:06;28.13;;;8.80;;
25984;SDS011;66753;53.848;10.658;2023-01-26T00:33:06;28.13;;;7.53;;
25984;SDS011;66753;53.848;10.658;2023-01-26T00:38:07;25.85;;;7.63;;
25984;SDS011;66753;53.848;10.658;2023-01-26T00:43:08;22.45;;;7.72;;
25984;SDS011;66753;53.848;10.658;2023-01-26T00:48:08;20.77;;;6.53;;
25984;SDS011;66753;53.848;10.658;2023-01-26T00:53:09;22.50;;;6.95;;
25984;SDS011;66753;53.848;10.658;2023-01-26T00:58:09;29.10;;;8.65;;
25984;SDS011;66753;53.848;10.658;2023-01-26T01:03:10;22.52;;;7.15;;
25984;SDS011;66753;53.848;10.658;2023-01-26T01:08:11;27.45;;;7.68;;
25984;SDS011;66753;53.848;10.658;2023-01-26T01:13:12;24.75;;;8.02;;
25984;SDS011;66753;53.848;10.658;2023-01-26T01:18:12;22.58;;;8.57;;
25984;SDS011;66753;53.848;10.658;2023-01-26T01:23:13;31.10;;;8.82;;
25984;SDS011;66753;53.848;10.658;2023-01-26T01:28:13;26.50;;;8.80;;
25984;SDS011;66753;53.848;10.658;2023-01-26T01:33:14;26.30;;;7.80;;
25984;SDS011;66753;53.848;10.658;2023-01-26T01:38:14;26.23;;;8.27;;
25984;SDS011;66753;53.848;10.658;2023-01-26T01:43:15;25.83;;;7.97;;
25984;SDS011;66753;53.848;10.658;2023-01-26T01:53:45;27.40;;;9.07;;
25984;SDS011;66753;53.848;10.658;2023-01-26T01:58:50;31.38;;;9.60;;
25984;SDS011;66753;53.848;10.658;2023-01-26T02:03:53;29.65;;;8.77;;
25984;SDS011;66753;53.848;10.658;2023-01-26T02:08:58;23.23;;;7.47;;
25984;SDS011;66753;53.848;10.658;2023-01-26T02:13:59;32.88;;;10.32;;
25984;SDS011;66753;53.848;10.658;2023-01-26T02:19:03;24.83;;;8.48;;
25984;SDS011;66753;53.848;10.658;2023-01-26T02:29:09;33.30;;;10.82;;
25984;SDS011;66753;53.848;10.658;2023-01-26T02:34:10;33.67;;;10.25;;
25984;SDS011;66753;53.848;10.658;2023-01-26T02:44:46;31.05;;;10.05;;
25984;SDS011;66753;53.848;10.658;2023-01-26T02:49:46;33.53;;;11.10;;
25984;SDS011;66753;53.848;10.658;2023-01-26T02:54:47;33.42;;;10.52;;
25984;SDS011;66753;53.848;10.658;2023-01-26T03:00:08;33.50;;;8.90;;
25984;SDS011;66753;53.848;10.658;2023-01-26T03:05:10;27.80;;;9.27;;
25984;SDS011;66753;53.848;10.658;2023-01-26T03:10:11;34.63;;;9.80;;
25984;SDS011;66753;53.848;10.658;2023-01-26T03:15:12;34.38;;;10.32;;
25984;SDS011;66753;53.848;10.658;2023-01-26T03:20:31;35.72;;;11.32;;
25984;SDS011;66753;53.848;10.658;2023-01-26T03:25:50;34.63;;;11.35;;
25984;SDS011;66753;53.848;10.658;2023-01-26T03:31:09;37.80;;;11.27;;
25984;SDS011;66753;53.848;10.658;2023-01-26T03:36:09;32.27;;;11.23;;
25984;SDS011;66753;53.848;10.658;2023-01-26T03:41:09;32.83;;;10.77;;
25984;SDS011;66753;53.848;10.658;2023-01-26T03:46:29;25.85;;;9.45;;
25984;SDS011;66753;53.848;10.658;2023-01-26T03:51:47;31.98;;;9.43;;
25984;SDS011;66753;53.848;10.658;2023-01-26T03:57:06;34.33;;;9.23;;
25984;SDS011;66753;53.848;10.658;2023-01-26T04:02:08;29.77;;;9.88;;
25984;SDS011;66753;53.848;10.658;2023-01-26T04:07:28;36.50;;;10.90;;
25984;SDS011;66753;53.848;10.658;2023-01-26T04:12:47;29.35;;;10.05;;
25984;SDS011;66753;53.848;10.658;2023-01-26T04:18:06;28.45;;;9.50;;
25984;SDS011;66753;53.848;10.658;2023-01-26T04:23:25;30.10;;;9.48;;
25984;SDS011;66753;53.848;10.658;2023-01-26T04:28:26;27.90;;;9.27;;
25984;SDS011;66753;53.848;10.658;2023-01-26T04:33:27;28.65;;;8.45;;
25984;SDS011;66753;53.848;10.658;2023-01-26T04:38:27;27.03;;;8.93;;
25984;SDS011;66753;53.848;10.658;2023-01-26T04:43:27;27.17;;;8.52;;
25984;SDS011;66753;53.848;10.658;2023-01-26T04:48:28;29.13;;;8.43;;
25984;SDS011;66753;53.848;10.658;2023-01-26T04:53:30;29.50;;;9.60;;
25984;SDS011;66753;53.848;10.658;2023-01-26T04:58:31;28.48;;;8.90;;
25984;SDS011;66753;53.848;10.658;2023-01-26T05:03:35;30.17;;;10.25;;
25984;SDS011;66753;53.848;10.658;2023-01-26T05:08:38;28.67;;;10.20;;
25984;SDS011;66753;53.848;10.658;2023-01-26T05:13:39;26.20;;;7.97;;
25984;SDS011;66753;53.848;10.658;2023-01-26T05:18:40;29.90;;;9.30;;
25984;SDS011;66753;53.848;10.658;2023-01-26T05:23:44;30.52;;;9.27;;
25984;SDS011;66753;53.848;10.658;2023-01-26T05:28:44;26.70;;;8.53;;
25984;SDS011;66753;53.848;10.658;2023-01-26T05:33:45;27.83;;;9.30;;
25984;SDS011;66753;53.848;10.658;2023-01-26T05:38:45;31.77;;;9.47;;
25984;SDS011;66753;53.848;10.658;2023-01-26T05:43:46;28.35;;;8.88;;
25984;SDS011;66753;53.848;10.658;2023-01-26T05:48:46;29.27;;;9.27;;
25984;SDS011;66753;53.848;10.658;2023-01-26T05:53:47;28.40;;;8.30;;
25984;SDS011;66753;53.848;10.658;2023-01-26T05:58:47;29.07;;;10.10;;
25984;SDS011;66753;53.848;10.658;2023-01-26T06:03:48;29.47;;;9.90;;
25984;SDS011;66753;53.848;10.658;2023-01-26T06:08:48;29.37;;;8.37;;
25984;SDS011;66753;53.848;10.658;2023-01-26T06:13:48;29.70;;;8.73;;
25984;SDS011;66753;53.848;10.658;2023-01-26T06:18:49;23.45;;;8.00;;
25984;SDS011;66753;53.848;10.658;2023-01-26T06:23:50;28.37;;;8.03;;
25984;SDS011;66753;53.848;10.658;2023-01-26T06:28:50;24.60;;;8.30;;
25984;SDS011;66753;53.848;10.658;2023-01-26T06:33:52;23.70;;;8.52;;
25984;SDS011;66753;53.848;10.658;2023-01-26T06:38:52;21.00;;;6.77;;
25984;SDS011;66753;53.848;10.658;2023-01-26T06:43:52;19.73;;;6.47;;
25984;SDS011;66753;53.848;10.658;2023-01-26T06:48:53;22.83;;;7.53;;
25984;SDS011;66753;53.848;10.658;2023-01-26T06:53:54;21.60;;;6.80;;
25984;SDS011;66753;53.848;10.658;2023-01-26T06:58:55;19.05;;;6.72;;
25984;SDS011;66753;53.848;10.658;2023-01-26T07:03:56;22.20;;;7.90;;
25984;SDS011;66753;53.848;10.658;2023-01-26T07:08:57;23.20;;;7.03;;
25984;SDS011;66753;53.848;10.658;2023-01-26T07:13:57;23.90;;;7.63;;
25984;SDS011;66753;53.848;10.658;2023-01-26T07:18:58;20.00;;;5.80;;
25984;SDS011;66753;53.848;10.658;2023-01-26T07:23:58;23.73;;;7.50;;
25984;SDS011;66753;53.848;10.658;2023-01-26T07:28:59;20.53;;;6.33;;
25984;SDS011;66753;53.848;10.658;2023-01-26T07:33:59;21.23;;;5.93;;
25984;SDS011;66753;53.848;10.658;2023-01-26T07:39:00;17.90;;;5.67;;
25984;SDS011;66753;53.848;10.658;2023-01-26T07:44:00;21.63;;;6.27;;
25984;SDS011;66753;53.848;10.658;2023-01-26T07:49:00;18.35;;;6.22;;
25984;SDS011;66753;53.848;10.658;2023-01-26T07:54:01;18.33;;;6.27;;
25984;SDS011;66753;53.848;10.658;2023-01-26T07:59:01;17.10;;;5.33;;
25984;SDS011;66753;53.848;10.658;2023-01-26T08:04:02;17.20;;;5.20;;
25984;SDS011;66753;53.848;10.658;2023-01-26T08:09:02;16.23;;;5.67;;
25984;SDS011;66753;53.848;10.658;2023-01-26T08:14:03;15.68;;;5.57;;
25984;SDS011;66753;53.848;10.658;2023-01-26T08:19:03;14.57;;;5.03;;
25984;SDS011;66753;53.848;10.658;2023-01-26T08:24:04;19.90;;;6.37;;
25984;SDS011;66753;53.848;10.658;2023-01-26T08:29:05;18.52;;;6.22;;
25984;SDS011;66753;53.848;10.658;2023-01-26T08:34:06;17.77;;;5.88;;
25984;SDS011;66753;53.848;10.658;2023-01-26T08:39:06;17.47;;;6.10;;
25984;SDS011;66753;53.848;10.658;2023-01-26T08:44:08;16.13;;;5.55;;
25984;SDS011;66753;53.848;10.658;2023-01-26T08:49:09;16.08;;;5.40;;
25984;SDS011;66753;53.848;10.658;2023-01-26T08:54:09;16.33;;;4.97;;
25984;SDS011;66753;53.848;10.658;2023-01-26T08:59:10;20.23;;;5.90;;
25984;SDS011;66753;53.848;10.658;2023-01-26T09:04:10;18.63;;;4.83;;
25984;SDS011;66753;53.848;10.658;2023-01-26T09:09:10;13.00;;;4.17;;
25984;SDS011;66753;53.848;10.658;2023-01-26T09:14:13;13.95;;;4.78;;
25984;SDS011;66753;53.848;10.658;2023-01-26T09:19:13;13.53;;;4.17;;
25984;SDS011;66753;53.848;10.658;2023-01-26T09:24:14;9.52;;;3.63;;
25984;SDS011;66753;53.848;10.658;2023-01-26T09:29:17;12.60;;;4.07;;
25984;SDS011;66753;53.848;10.658;2023-01-26T09:34:17;9.40;;;3.63;;
25984;SDS011;66753;53.848;10.658;2023-01-26T09:39:18;6.77;;;2.83;;
25984;SDS011;66753;53.848;10.658;2023-01-26T09:44:19;11.25;;;3.72;;
25984;SDS011;66753;53.848;10.658;2023-01-26T09:49:41;9.13;;;3.42;;
25984;SDS011;66753;53.848;10.658;2023-01-26T09:54:47;11.15;;;3.47;;
25984;SDS011;66753;53.848;10.658;2023-01-26T09:59:56;11.75;;;4.10;;
25984;SDS011;66753;53.848;10.658;2023-01-26T10:05:01;11.55;;;3.50;;
25984;SDS011;66753;53.848;10.658;2023-01-26T10:10:08;11.48;;;3.90;;
25984;SDS011;66753;53.848;10.658;2023-01-26T10:25:37;16.33;;;4.32;;
25984;SDS011;66753;53.848;10.658;2023-01-26T10:30:39;13.98;;;4.75;;
25984;SDS011;66753;53.848;10.658;2023-01-26T10:35:45;12.40;;;3.70;;
25984;SDS011;66753;53.848;10.658;2023-01-26T10:40:46;13.18;;;4.85;;
25984;SDS011;66753;53.848;10.658;2023-01-26T10:45:47;15.43;;;4.53;;
25984;SDS011;66753;53.848;10.658;2023-01-26T10:50:47;13.83;;;4.57;;
25984;SDS011;66753;53.848;10.658;2023-01-26T10:56:00;19.38;;;4.72;;
25984;SDS011;66753;53.848;10.658;2023-01-26T11:01:04;14.27;;;5.63;;
25984;SDS011;66753;53.848;10.658;2023-01-26T11:06:15;16.23;;;5.22;;
25984;SDS011;66753;53.848;10.658;2023-01-26T11:11:22;16.90;;;4.75;;
25984;SDS011;66753;53.848;10.658;2023-01-26T11:32:02;22.10;;;6.18;;
25984;SDS011;66753;53.848;10.658;2023-01-26T12:08:50;20.92;;;6.80;;
25984;SDS011;66753;53.848;10.658;2023-01-26T12:24:34;25.40;;;6.80;;
25984;SDS011;66753;53.848;10.658;2023-01-26T12:29:51;21.35;;;6.40;;
25984;SDS011;66753;53.848;10.658;2023-01-26T12:35:25;20.77;;;5.60;;
25984;SDS011;66753;53.848;10.658;2023-01-26T12:45:54;29.38;;;5.47;;
25984;SDS011;66753;53.848;10.658;2023-01-26T12:50:58;21.40;;;6.30;;
25984;SDS011;66753;53.848;10.658;2023-01-26T12:56:07;22.83;;;6.53;;
25984;SDS011;66753;53.848;10.658;2023-01-26T13:01:15;21.63;;;5.93;;
25984;SDS011;66753;53.848;10.658;2023-01-26T13:06:19;19.20;;;5.65;;
25984;SDS011;66753;53.848;10.658;2023-01-26T13:11:43;27.52;;;6.65;;
25984;SDS011;66753;53.848;10.658;2023-01-26T13:16:51;16.75;;;4.90;;
25984;SDS011;66753;53.848;10.658;2023-01-26T13:21:51;25.03;;;7.10;;
25984;SDS011;66753;53.848;10.658;2023-01-26T13:26:53;23.27;;;6.95;;
25984;SDS011;66753;53.848;10.658;2023-01-26T13:36:58;17.55;;;5.97;;
25984;SDS011;66753;53.848;10.658;2023-01-26T13:42:19;17.88;;;6.22;;
25984;SDS011;66753;53.848;10.658;2023-01-26T13:47:25;23.08;;;6.90;;
25984;SDS011;66753;53.848;10.658;2023-01-26T13:52:33;22.88;;;6.15;;
25984;SDS011;66753;53.848;10.658;2023-01-26T13:57:41;15.18;;;4.88;;
25984;SDS011;66753;53.848;10.658;2023-01-26T14:02:44;20.97;;;6.00;;
25984;SDS011;66753;53.848;10.658;2023-01-26T14:07:48;14.48;;;4.80;;
25984;SDS011;66753;53.848;10.658;2023-01-26T14:12:52;13.75;;;5.07;;
25984;SDS011;66753;53.848;10.658;2023-01-26T14:28:13;10.88;;;3.63;;
25984;SDS011;66753;53.848;10.658;2023-01-26T14:33:20;15.75;;;4.70;;
25984;SDS011;66753;53.848;10.658;2023-01-26T14:38:22;11.00;;;3.83;;
25984;SDS011;66753;53.848;10.658;2023-01-26T14:43:23;16.33;;;3.50;;
25984;SDS011;66753;53.848;10.658;2023-01-26T14:48:26;17.40;;;4.93;;
25984;SDS011;66753;53.848;10.658;2023-01-26T14:53:33;15.50;;;4.72;;
25984;SDS011;66753;53.848;10.658;2023-01-26T14:58:33;16.13;;;5.37;;
25984;SDS011;66753;53.848;10.658;2023-01-26T15:03:34;15.27;;;4.65;;
25984;SDS011;66753;53.848;10.658;2023-01-26T15:08:38;17.65;;;5.18;;
25984;SDS011;66753;53.848;10.658;2023-01-26T15:13:39;14.75;;;5.15;;
25984;SDS011;66753;53.848;10.658;2023-01-26T15:18:40;19.70;;;5.07;;
25984;SDS011;66753;53.848;10.658;2023-01-26T15:23:41;27.63;;;8.57;;
25984;SDS011;66753;53.848;10.658;2023-01-26T15:28:48;23.45;;;7.50;;
25984;SDS011;66753;53.848;10.658;2023-01-26T15:33:51;9.88;;;3.85;;
25984;SDS011;66753;53.848;10.658;2023-01-26T15:38:57;14.38;;;4.57;;
25984;SDS011;66753;53.848;10.658;2023-01-26T15:43:59;9.13;;;3.83;;
25984;SDS011;66753;53.848;10.658;2023-01-26T15:48:59;8.93;;;2.43;;
25984;SDS011;66753;53.848;10.658;2023-01-26T15:54:00;6.87;;;2.00;;
25984;SDS011;66753;53.848;10.658;2023-01-26T15:59:00;12.60;;;3.00;;
25984;SDS011;66753;53.848;10.658;2023-01-26T16:04:01;11.83;;;3.13;;
25984;SDS011;66753;53.848;10.658;2023-01-26T16:09:01;8.33;;;1.90;;
25984;SDS011;66753;53.848;10.658;2023-01-26T16:14:02;14.60;;;3.45;;
25984;SDS011;66753;53.848;10.658;2023-01-26T16:19:02;8.55;;;2.50;;
25984;SDS011;66753;53.848;10.658;2023-01-26T16:24:03;7.93;;;2.93;;
25984;SDS011;66753;53.848;10.658;2023-01-26T16:29:06;11.18;;;3.83;;
25984;SDS011;66753;53.848;10.658;2023-01-26T16:34:08;9.53;;;3.57;;
25984;SDS011;66753;53.848;10.658;2023-01-26T16:39:08;16.08;;;3.95;;
25984;SDS011;66753;53.848;10.658;2023-01-26T16:44:12;14.90;;;4.10;;
25984;SDS011;66753;53.848;10.658;2023-01-26T16:49:14;12.07;;;4.00;;
25984;SDS011;66753;53.848;10.658;2023-01-26T16:54:18;10.98;;;3.95;;
25984;SDS011;66753;53.848;10.658;2023-01-26T16:59:18;11.13;;;3.70;;
25984;SDS011;66753;53.848;10.658;2023-01-26T17:04:19;12.60;;;3.17;;
25984;SDS011;66753;53.848;10.658;2023-01-26T17:09:19;9.80;;;3.00;;
25984;SDS011;66753;53.848;10.658;2023-01-26T17:14:22;11.57;;;4.05;;
25984;SDS011;66753;53.848;10.658;2023-01-26T17:19:23;12.30;;;3.90;;
25984;SDS011;66753;53.848;10.658;2023-01-26T17:24:23;15.23;;;4.23;;
25984;SDS011;66753;53.848;10.658;2023-01-26T17:29:24;12.37;;;3.47;;
25984;SDS011;66753;53.848;10.658;2023-01-26T17:34:24;14.23;;;4.17;;
25984;SDS011;66753;53.848;10.658;2023-01-26T17:39:25;12.93;;;3.90;;
25984;SDS011;66753;53.848;10.658;2023-01-26T17:44:26;12.13;;;3.33;;
25984;SDS011;66753;53.848;10.658;2023-01-26T17:49:26;10.47;;;4.20;;
25984;SDS011;66753;53.848;10.658;2023-01-26T17:54:27;13.30;;;4.38;;
25984;SDS011;66753;53.848;10.658;2023-01-26T17:59:27;12.73;;;5.40;;
25984;SDS011;66753;53.848;10.658;2023-01-26T18:04:28;14.90;;;4.33;;
25984;SDS011;66753;53.848;10.658;2023-01-26T18:09:28;15.50;;;5.50;;
25984;SDS011;66753;53.848;10.658;2023-01-26T18:14:29;12.80;;;4.47;;
25984;SDS011;66753;53.848;10.658;2023-01-26T18:19:29;19.77;;;4.77;;
25984;SDS011;66753;53.848;10.658;2023-01-26T18:24:29;21.73;;;7.37;;
25984;SDS011;66753;53.848;10.658;2023-01-26T18:29:35;10.38;;;4.07;;
25984;SDS011;66753;53.848;10.658;2023-01-26T18:34:36;10.30;;;4.13;;
25984;SDS011;66753;53.848;10.658;2023-01-26T18:39:38;12.98;;;4.07;;
25984;SDS011;66753;53.848;10.658;2023-01-26T18:44:38;11.07;;;4.43;;
25984;SDS011;66753;53.848;10.658;2023-01-26T18:49:38;10.50;;;4.57;;
25984;SDS011;66753;53.848;10.658;2023-01-26T18:54:39;11.13;;;3.70;;
25984;SDS011;66753;53.848;10.658;2023-01-26T18:59:39;8.10;;;4.13;;
25984;SDS011;66753;53.848;10.658;2023-01-26T19:04:40;12.87;;;4.20;;
25984;SDS011;66753;53.848;10.658;2023-01-26T19:09:41;10.75;;;4.00;;
25984;SDS011;66753;53.848;10.658;2023-01-26T19:14:41;13.23;;;5.03;;
25984;SDS011;66753;53.848;10.658;2023-01-26T19:19:42;20.00;;;8.50;;
25984;SDS011;66753;53.848;10.658;2023-01-26T19:24:42;10.98;;;5.68;;
25984;SDS011;66753;53.848;10.658;2023-01-26T19:29:43;14.70;;;7.70;;
25984;SDS011;66753;53.848;10.658;2023-01-26T19:34:43;12.17;;;6.40;;
25984;SDS011;66753;53.848;10.658;2023-01-26T19:39:43;15.40;;;5.67;;
25984;SDS011;66753;53.848;10.658;2023-01-26T19:44:44;11.80;;;5.00;;
25984;SDS011;66753;53.848;10.658;2023-01-26T19:49:44;12.27;;;5.63;;
25984;SDS011;66753;53.848;10.658;2023-01-26T19:54:45;13.40;;;5.90;;
25984;SDS011;66753;53.848;10.658;2023-01-26T19:59:45;11.60;;;5.80;;
25984;SDS011;66753;53.848;10.658;2023-01-26T20:04:46;12.00;;;5.80;;
25984;SDS011;66753;53.848;10.658;2023-01-26T20:09:46;14.10;;;5.53;;
25984;SDS011;66753;53.848;10.658;2023-01-26T20:14:46;8.68;;;4.15;;
25984;SDS011;66753;53.848;10.658;2023-01-26T20:19:47;8.55;;;4.00;;
25984;SDS011;66753;53.848;10.658;2023-01-26T20:24:48;8.40;;;3.47;;
25984;SDS011;66753;53.848;10.658;2023-01-26T20:29:49;5.25;;;2.33;;
25984;SDS011;66753;53.848;10.658;2023-01-26T20:34:49;9.27;;;2.33;;
25984;SDS011;66753;53.848;10.658;2023-01-26T20:44:52;18.27;;;7.15;;
25984;SDS011;66753;53.848;10.658;2023-01-26T20:49:54;12.00;;;2.92;;
25984;SDS011;66753;53.848;10.658;2023-01-26T20:54:55;7.47;;;3.65;;
25984;SDS011;66753;53.848;10.658;2023-01-26T20:59:55;7.23;;;2.63;;
25984;SDS011;66753;53.848;10.658;2023-01-26T21:04:56;4.37;;;2.37;;
25984;SDS011;66753;53.848;10.658;2023-01-26T21:09:56;18.67;;;5.27;;
25984;SDS011;66753;53.848;10.658;2023-01-26T21:14:57;15.88;;;6.07;;
25984;SDS011;66753;53.848;10.658;2023-01-26T21:19:57;20.07;;;6.77;;
25984;SDS011;66753;53.848;10.658;2023-01-26T21:24:57;5.30;;;1.70;;
25984;SDS011;66753;53.848;10.658;2023-01-26T21:29:58;7.00;;;3.70;;
25984;SDS011;66753;53.848;10.658;2023-01-26T21:34:58;5.30;;;2.43;;
25984;SDS011;66753;53.848;10.658;2023-01-26T21:39:59;3.67;;;1.67;;
25984;SDS011;66753;53.848;10.658;2023-01-26T21:44:59;3.65;;;1.30;;
25984;SDS011;66753;53.848;10.658;2023-01-26T21:50:18;2.67;;;1.10;;
25984;SDS011;66753;53.848;10.658;2023-01-26T21:55:39;2.80;;;1.08;;
25984;SDS011;66753;53.848;10.658;2023-01-26T22:00:40;2.38;;;1.05;;
25984;SDS011;66753;53.848;10.658;2023-01-26T22:05:50;3.50;;;1.48;;
25984;SDS011;66753;53.848;10.658;2023-01-26T22:10:52;2.00;;;0.77;;
25984;SDS011;66753;53.848;10.658;2023-01-26T22:15:59;2.20;;;0.95;;
25984;SDS011;66753;53.848;10.658;2023-01-26T22:21:00;3.65;;;1.30;;
25984;SDS011;66753;53.848;10.658;2023-01-26T22:26:09;7.05;;;1.25;;
25984;SDS011;66753;53.848;10.658;2023-01-26T22:31:19;9.00;;;3.03;;
25984;SDS011;66753;53.848;10.658;2023-01-26T22:36:22;4.72;;;1.13;;
25984;SDS011;66753;53.848;10.658;2023-01-26T22:41:23;4.72;;;1.77;;
25984;SDS011;66753;53.848;10.658;2023-01-26T22:46:26;3.17;;;1.10;;
25984;SDS011;66753;53.848;10.658;2023-01-26T22:51:28;4.53;;;2.00;;
25984;SDS011;66753;53.848;10.658;2023-01-26T22:56:30;4.15;;;1.20;;
25984;SDS011;66753;53.848;10.658;2023-01-26T23:01:30;3.63;;;1.10;;
25984;SDS011;66753;53.848;10.658;2023-01-26T23:06:32;3.83;;;1.23;;
25984;SDS011;66753;53.848;10.658;2023-01-26T23:11:32;3.00;;;1.10;;
25984;SDS011;66753;53.848;10.658;2023-01-26T23:16:32;4.00;;;1.33;;
25984;SDS011;66753;53.848;10.658;2023-01-26T23:21:33;4.37;;;1.60;;
25984;SDS011;66753;53.848;10.658;2023-01-26T23:26:33;2.17;;;1.00;;
25984;SDS011;66753;53.848;10.658;2023-01-26T23:31:34;2.70;;;1.03;;
25984;SDS011;66753;53.848;10.658;2023-01-26T23:36:34;5.37;;;2.03;;
25984;SDS011;66753;53.848;10.658;2023-01-26T23:41:34;3.13;;;1.20;;
25984;SDS011;66753;53.848;10.658;2023-01-26T23:46:35;3.73;;;1.50;;
25984;SDS011;66753;53.848;10.658;2023-01-26T23:51:35;3.90;;;1.23;;
25984;SDS011;66753;53.848;10.658;2023-01-26T23:56:37;3.45;;;1.45;;
